Time;durP1;ratioP1;P1;durP2;ratioP2;P2;SDS_P1;SDS_P2;PMS_P1;PMS_P2;Temp;Humidity;BMP_temperature;BMP_pressure;BME280_temperature;BME280_humidity;BME280_pressure;Samples;Min_cycle;Max_cycle;Signal;HPM_P1;HPM_P2
2022/02/10 00:04:46;;;;;;;;;;;1.50;74.20;;;;;;6186715;23;19920;-78
2022/02/10 00:15:52;;;;;;;;;;;1.30;74.80;;;;;;6183237;23;19916;-77
2022/02/10 00:35:12;;;;;;;;;;;0.80;75.60;;;;;;6071327;23;19917;-78
2022/02/10 00:37:51;;;;;;;;;;;0.80;76.30;;;;;;6155295;23;19920;-78
2022/02/10 00:40:20;;;;;;;;;;;0.70;76.60;;;;;;6156014;23;19966;-75
2022/02/10 00:42:47;;;;;;;;;;;0.70;76.10;;;;;;6143819;23;19991;-75
2022/02/10 00:45:14;;;;;;;;;;;0.70;76.30;;;;;;6184003;23;19916;-75
2022/02/10 00:47:56;;;;;;;;;;;0.70;76.40;;;;;;6186201;23;20345;-77
2022/02/10 00:50:24;;;;;;;;;;;0.70;76.20;;;;;;6182784;23;19916;-78
2022/02/10 00:52:58;;;;;;;;;;;0.70;77.20;;;;;;6183869;23;19920;-77
2022/02/10 00:55:28;;;;;;;;;;;0.60;77.30;;;;;;6161709;23;19983;-74
2022/02/10 00:57:55;;;;;;;;;;;0.70;76.50;;;;;;6173174;23;19924;-75
2022/02/10 01:30:12;;;;;;;;;;;2.10;70.80;;;;;;6183275;23;19920;-75
2022/02/10 01:32:42;;;;;;;;;;;2.00;71.00;;;;;;6187221;23;19920;-75
2022/02/10 01:35:12;;;;;;;;;;;1.80;72.30;;;;;;6149956;23;19927;-75
2022/02/10 01:37:39;;;;;;;;;;;1.80;72.20;;;;;;6183456;23;20392;-75
2022/02/10 01:40:20;;;;;;;;;;;1.70;72.00;;;;;;6161485;23;19943;-77
2022/02/10 02:05:02;;;;;;;;;;;1.30;73.60;;;;;;6192197;23;19928;-75
2022/02/10 02:07:37;;;;;;;;;;;1.20;73.70;;;;;;6196330;23;19916;-76
2022/02/10 02:10:06;;;;;;;;;;;1.20;74.20;;;;;;6165644;23;19923;-77
2022/02/10 02:12:40;;;;;;;;;;;1.10;74.40;;;;;;6161827;23;19920;-77
2022/02/10 02:15:07;;;;;;;;;;;1.20;74.10;;;;;;6162586;23;19916;-77
2022/02/10 02:17:34;;;;;;;;;;;1.20;73.60;;;;;;6159547;23;19920;-75
2022/02/10 02:20:01;;;;;;;;;;;1.10;74.60;;;;;;6186340;23;19921;-75
2022/02/10 02:22:27;;;;;;;;;;;1.00;75.50;;;;;;6169534;23;20345;-74
2022/02/10 02:24:54;;;;;;;;;;;0.90;76.30;;;;;;6168255;23;19966;-75
2022/02/10 02:27:21;;;;;;;;;;;0.80;75.90;;;;;;6156299;23;19923;-78
2022/02/10 02:29:50;;;;;;;;;;;0.70;76.20;;;;;;6189354;23;19923;-74
2022/02/10 02:32:32;;;;;;;;;;;0.70;76.40;;;;;;6184297;23;19932;-77
2022/02/10 02:35:45;;;;;;;;;;;0.70;76.30;;;;;;6165086;23;20360;-75
2022/02/10 03:05:38;;;;;;;;;;;1.90;71.80;;;;;;6180477;23;19916;-78
2022/02/10 03:07:54;;;;;;;;;;;2.00;70.80;;;;;;6165958;23;19920;-74
2022/02/10 03:10:36;;;;;;;;;;;2.00;70.30;;;;;;6183739;23;20333;-75
2022/02/10 03:13:08;;;;;;;;;;;1.80;70.60;;;;;;6187772;23;20230;-75
2022/02/10 04:03:14;;;;;;;;;;;0.60;76.90;;;;;;6169423;23;19916;-75
2022/02/10 04:13:08;;;;;;;;;;;0.50;78.00;;;;;;6184677;23;20248;-76
2022/02/10 04:21:06;;;;;;;;;;;0.20;79.80;;;;;;6151538;23;19929;-77
2022/02/10 04:26:21;;;;;;;;;;;0.10;79.60;;;;;;6188998;23;19916;-74
2022/02/10 04:37:35;;;;;;;;;;;-0.10;79.90;;;;;;6186843;23;20431;-75
2022/02/10 04:56:33;;;;;;;;;;;-0.40;80.60;;;;;;6182222;23;19916;-77
2022/02/10 04:59:26;;;;;;;;;;;-0.40;81.80;;;;;;6169956;23;19920;-78
2022/02/10 05:05:10;;;;;;;;;;;-0.40;83.20;;;;;;6190891;23;19939;-75
2022/02/10 05:34:19;;;;;;;;;;;-0.70;82.90;;;;;;6153845;23;20448;-78
2022/02/10 05:36:47;;;;;;;;;;;-0.70;83.90;;;;;;6189433;23;19920;-76
2022/02/10 05:39:19;;;;;;;;;;;-0.60;83.10;;;;;;6171975;23;19924;-75
2022/02/10 05:42:09;;;;;;;;;;;-0.60;82.50;;;;;;6172864;23;20265;-74
2022/02/10 05:58:10;;;;;;;;;;;0.10;78.50;;;;;;6167853;23;19920;-77
2022/02/10 06:38:29;;;;;;;;;;;0.20;78.10;;;;;;6185963;23;19920;-76
2022/02/10 07:06:52;;;;;;;;;;;3.10;66.90;;;;;;6183513;23;20333;-77
2022/02/10 07:09:39;;;;;;;;;;;3.00;66.40;;;;;;6189918;23;19916;-75
2022/02/10 07:12:28;;;;;;;;;;;3.10;65.50;;;;;;6182327;23;20431;-75
2022/02/10 07:58:56;;;;;;;;;;;4.60;58.20;;;;;;6190934;23;19923;-76
2022/02/10 08:56:03;;;;;;;;;;;5.90;53.90;;;;;;6184857;23;19916;-76
2022/02/10 09:04:05;;;;;;;;;;;6.10;53.90;;;;;;6198704;23;19931;-75
2022/02/10 09:58:43;;;;;;;;;;;7.20;50.50;;;;;;6192581;23;19986;-77
2022/02/10 10:01:17;;;;;;;;;;;7.30;50.30;;;;;;6184307;23;19923;-75
2022/02/10 10:04:33;;;;;;;;;;;7.30;50.30;;;;;;6183527;23;19923;-75
2022/02/10 10:10:09;;;;;;;;;;;7.40;50.60;;;;;;6186895;23;19920;-76
2022/02/10 10:13:17;;;;;;;;;;;7.40;50.70;;;;;;6183672;23;19927;-76
2022/02/10 10:15:47;;;;;;;;;;;7.50;50.30;;;;;;6187418;23;19916;-76
2022/02/10 10:54:37;;;;;;;;;;;9.90;48.10;;;;;;6189371;23;19920;-76
2022/02/10 10:57:27;;;;;;;;;;;10.10;46.80;;;;;;6190085;23;19947;-78
2022/02/10 11:37:17;;;;;;;;;;;12.30;53.20;;;;;;6041937;23;19921;-76
2022/02/10 11:40:03;;;;;;;;;;;12.30;52.40;;;;;;6183192;23;19920;-76
2022/02/10 13:29:36;;;;;;;12.35;7.15;;;15.10;46.70;;;;;;6169715;23;20448;-78
2022/02/10 13:34:57;;;;;;;16.67;7.47;;;15.00;46.30;;;;;;6199762;23;20048;-77
2022/02/10 14:13:15;;;;;;;;;;;14.60;47.00;;;;;;6191167;23;20055;-76
2022/02/10 14:18:25;;;;;;;;;;;14.40;46.30;;;;;;6202740;23;19900;-76
2022/02/10 14:26:07;;;;;;;;;;;14.40;48.40;;;;;;6191518;23;19916;-76
2022/02/10 14:28:34;;;;;;;;;;;14.40;48.60;;;;;;6151716;23;19916;-76
2022/02/10 14:31:04;;;;;;;6.30;3.33;;;14.50;48.50;;;;;;6169912;23;19916;-78
2022/02/10 14:33:35;;;;;;;12.48;4.03;;;14.60;48.00;;;;;;6196488;23;20529;-77
2022/02/10 14:41:51;;;;;;;;;;;14.50;48.40;;;;;;6196277;23;20025;-76
2022/02/10 15:13:18;;;;;;;6.95;3.78;;;14.10;49.80;;;;;;6193943;23;20025;-75
2022/02/10 15:18:28;;;;;;;12.65;4.97;;;14.00;50.40;;;;;;6182428;23;19916;-75
2022/02/10 16:16:01;;;;;;;;;;;12.70;57.40;;;;;;6118705;23;19916;-78
2022/02/10 16:18:07;;;;;;;;;;;12.50;57.70;;;;;;6187971;23;19924;-76
2022/02/10 16:20:34;;;;;;;;;;;12.40;58.00;;;;;;6159848;23;19922;-76
2022/02/10 16:23:04;;;;;;;;;;;12.30;58.50;;;;;;6156597;23;19943;-76
2022/02/10 16:25:35;;;;;;;;;;;12.20;59.10;;;;;;6161770;23;20234;-75
2022/02/10 16:30:48;;;;;;;;;;;12.00;60.10;;;;;;6187805;23;19939;-75
2022/02/10 16:33:20;;;;;;;;;;;11.90;60.70;;;;;;6166681;23;19923;-75
2022/02/10 16:35:52;;;;;;;;;;;11.70;61.20;;;;;;6187394;23;19924;-76
2022/02/10 16:38:23;;;;;;;;;;;11.70;61.90;;;;;;6163744;23;19978;-75
2022/02/10 16:40:50;;;;;;;;;;;11.50;62.50;;;;;;6145568;23;19920;-76
2022/02/10 16:43:17;;;;;;;;;;;11.50;62.90;;;;;;6188189;23;20289;-77
2022/02/10 16:45:48;;;;;;;;;;;11.40;63.30;;;;;;6186339;23;19920;-77
2022/02/10 16:48:20;;;;;;;;;;;11.30;63.50;;;;;;6165816;23;20008;-77
2022/02/10 16:50:52;;;;;;;;;;;11.20;63.90;;;;;;6160089;23;19916;-76
2022/02/10 16:53:23;;;;;;;;;;;11.10;64.00;;;;;;6188976;23;20337;-77
2022/02/10 16:56:04;;;;;;;;;;;11.10;64.00;;;;;;6157250;23;19920;-77
2022/02/10 16:58:42;;;;;;;;;;;11.00;63.70;;;;;;6162350;23;19973;-77
2022/02/10 17:21:01;;;;;;;;;;;10.20;64.70;;;;;;6190440;23;19963;-76
2022/02/10 17:28:51;;;;;;;;;;;9.90;65.20;;;;;;6188550;23;19984;-76
2022/02/10 17:36:44;;;;;;;;;;;9.40;67.00;;;;;;6192358;23;20333;-77
2022/02/10 17:52:21;;;;;;;;;;;8.70;66.70;;;;;;6188257;23;20452;-77
2022/02/10 17:54:49;;;;;;;;;;;8.60;66.80;;;;;;6160594;23;19924;-76
2022/02/10 17:57:17;;;;;;;;;;;8.50;67.00;;;;;;6161854;23;19927;-78
2022/02/10 17:59:45;;;;;;;;;;;8.40;67.30;;;;;;6186703;23;19920;-77
2022/02/10 18:02:12;;;;;;;;;;;8.30;68.60;;;;;;6158915;23;19929;-77
2022/02/10 18:04:40;;;;;;;;;;;8.20;68.90;;;;;;6185739;23;19923;-77
2022/02/10 18:07:10;;;;;;;;;;;8.10;68.30;;;;;;6187665;23;19916;-78
2022/02/10 18:13:20;;;;;;;;;;;7.90;68.50;;;;;;6163702;23;19916;-76
2022/02/10 18:15:31;;;;;;;;;;;7.80;68.60;;;;;;6194349;23;20360;-75
2022/02/10 18:18:10;;;;;;;;;;;7.80;69.10;;;;;;6164404;23;19923;-76
2022/02/10 18:21:00;;;;;;;;;;;7.70;69.20;;;;;;6184112;23;19917;-76
2022/02/10 18:23:36;;;;;;;;;;;7.60;69.30;;;;;;6160024;23;19916;-77
2022/02/10 18:26:13;;;;;;;;;;;7.50;69.50;;;;;;6186079;23;20337;-76
2022/02/10 18:28:54;;;;;;;;;;;7.50;70.30;;;;;;6161744;23;20301;-76
2022/02/10 19:05:01;;;;;;;;;;;6.60;72.50;;;;;;6183335;23;19951;-77
2022/02/10 19:08:59;;;;;;;;;;;6.40;72.70;;;;;;6183607;23;19920;-76
2022/02/10 19:11:24;;;;;;;;;;;6.30;73.10;;;;;;6184967;23;19920;-77
2022/02/10 19:13:54;;;;;;;;;;;6.20;72.90;;;;;;6162551;23;19920;-77
2022/02/10 19:16:22;;;;;;;;;;;6.10;72.40;;;;;;6185383;23;19920;-76
2022/02/10 19:18:51;;;;;;;;;;;6.10;72.90;;;;;;6166388;23;20312;-77
2022/02/10 19:21:20;;;;;;;;;;;6.00;72.90;;;;;;6160093;23;19920;-76
2022/02/10 19:23:47;;;;;;;;;;;5.90;72.90;;;;;;6183620;23;19939;-76
2022/02/10 19:26:14;;;;;;;;;;;5.90;72.80;;;;;;6188033;23;19916;-76
2022/02/10 19:28:41;;;;;;;;;;;5.80;73.30;;;;;;6158764;23;20383;-76
2022/02/10 19:31:10;;;;;;;;;;;5.70;73.40;;;;;;6186355;23;19916;-75
2022/02/10 19:33:37;;;;;;;;;;;5.70;73.50;;;;;;6188962;23;19931;-77
2022/02/10 19:36:03;;;;;;;;;;;5.60;73.40;;;;;;6167851;23;19916;-75
2022/02/10 19:38:31;;;;;;;;;;;5.60;73.50;;;;;;6185089;23;19916;-75
2022/02/10 19:40:58;;;;;;;;;;;5.50;73.80;;;;;;6187829;23;19923;-77
2022/02/10 19:43:45;;;;;;;;;;;5.50;74.10;;;;;;6164756;23;20011;-77
2022/02/10 19:46:12;;;;;;;;;;;5.40;74.40;;;;;;6184704;23;20234;-75
2022/02/10 19:48:39;;;;;;;;;;;5.40;74.40;;;;;;6163278;23;20245;-76
2022/02/10 19:51:06;;;;;;;;;;;5.30;74.70;;;;;;6187910;23;19920;-77
2022/02/10 19:53:35;;;;;;;;;;;5.30;75.20;;;;;;6160887;23;20342;-77
2022/02/10 19:56:02;;;;;;;;;;;5.20;75.10;;;;;;6189139;23;19916;-77
2022/02/10 19:58:30;;;;;;;;;;;5.10;75.00;;;;;;6164576;23;19975;-77
2022/02/10 20:00:59;;;;;;;;;;;5.10;75.00;;;;;;6161545;23;19932;-76
2022/02/10 20:03:27;;;;;;;;;;;5.00;74.80;;;;;;6163825;23;20305;-77
2022/02/10 20:05:55;;;;;;;;;;;4.90;74.90;;;;;;6161922;23;20277;-76
2022/02/10 20:08:23;;;;;;;;;;;4.90;75.30;;;;;;6186621;23;20352;-76
2022/02/10 20:10:51;;;;;;;;;;;4.70;76.20;;;;;;6161672;23;19959;-76
2022/02/10 20:13:18;;;;;;;;;;;4.60;76.50;;;;;;6190592;23;19916;-76
2022/02/10 20:15:46;;;;;;;;;;;4.50;76.90;;;;;;6159631;23;19951;-77
2022/02/10 20:18:16;;;;;;;;;;;4.50;76.60;;;;;;6187914;23;19923;-75
2022/02/10 20:20:43;;;;;;;;;;;4.40;76.70;;;;;;6192407;23;19966;-76
2022/02/10 20:23:10;;;;;;;;;;;4.30;76.60;;;;;;6163271;23;20231;-77
2022/02/10 20:25:57;;;;;;;;;;;4.20;76.40;;;;;;6189145;23;19920;-77
2022/02/10 20:28:26;;;;;;;;;;;4.20;76.40;;;;;;6167985;23;19917;-76
2022/02/10 20:30:52;;;;;;;;;;;4.10;77.10;;;;;;6186906;23;19924;-75
2022/02/10 20:33:22;;;;;;;;;;;4.10;76.90;;;;;;6164828;23;19916;-77
2022/02/10 20:35:53;;;;;;;;;;;4.00;77.50;;;;;;6134292;23;19920;-76
2022/02/10 20:38:20;;;;;;;;;;;4.00;77.40;;;;;;6164282;23;19916;-76
2022/02/10 20:40:56;;;;;;;;;;;4.00;78.40;;;;;;6185814;23;19967;-77
2022/02/10 20:43:23;;;;;;;;;;;4.00;78.10;;;;;;6190463;23;19997;-76
2022/02/10 20:45:56;;;;;;;;;;;3.90;77.90;;;;;;6158034;23;19971;-78
2022/02/10 20:48:24;;;;;;;;;;;3.80;78.10;;;;;;6190742;23;20329;-77
2022/02/10 20:50:54;;;;;;;;;;;3.80;77.90;;;;;;6161138;23;20252;-77
2022/02/10 20:53:23;;;;;;;;;;;3.80;78.30;;;;;;6162073;23;20304;-78
2022/02/10 20:55:53;;;;;;;;;;;3.80;78.40;;;;;;6162441;23;20341;-77
2022/02/10 20:58:25;;;;;;;;;;;3.70;79.00;;;;;;6166552;23;19940;-74
2022/02/10 21:00:53;;;;;;;;;;;3.70;78.40;;;;;;6187314;23;19975;-77
2022/02/10 21:03:25;;;;;;;;;;;3.70;78.30;;;;;;6163243;23;19944;-78
2022/02/10 21:06:01;;;;;;;;;;;3.60;78.30;;;;;;6186185;23;19916;-77
2022/02/10 21:11:02;;;;;;;;;;;3.60;78.50;;;;;;6191943;23;19920;-77
2022/02/10 21:13:31;;;;;;;;;;;3.50;78.40;;;;;;6160531;23;19939;-77
2022/02/10 21:15:58;;;;;;;;;;;3.50;78.20;;;;;;6187681;23;19939;-77
2022/02/10 21:18:26;;;;;;;;;;;3.50;78.60;;;;;;6167748;23;19975;-75
2022/02/10 21:20:58;;;;;;;;;;;3.50;80.70;;;;;;6162804;23;19920;-77
2022/02/10 21:23:34;;;;;;;;;;;3.50;81.00;;;;;;6162431;23;20211;-76
2022/02/10 21:26:01;;;;;;;;;;;3.50;81.20;;;;;;6162892;23;19920;-77
2022/02/10 21:28:32;;;;;;;;;;;3.50;81.20;;;;;;6163511;23;19916;-76
2022/02/10 21:31:03;;;;;;;;;;;3.50;80.90;;;;;;6186077;23;19920;-76
2022/02/10 21:38:57;;;;;;;;;;;3.30;82.00;;;;;;6190750;23;20329;-77
2022/02/10 22:24:17;;;;;;;;;;;4.00;80.30;;;;;;6192196;23;20281;-74
2022/02/10 22:26:45;;;;;;;;;;;3.80;79.50;;;;;;6191772;23;19928;-75
2022/02/10 22:29:29;;;;;;;;;;;3.70;79.30;;;;;;6187077;23;19920;-75
2022/02/10 22:36:57;;;;;;;;;;;3.20;80.90;;;;;;6184822;23;19959;-77
2022/02/10 22:39:24;;;;;;;;;;;3.20;80.70;;;;;;6195130;23;19923;-77
2022/02/10 22:41:56;;;;;;;;;;;3.00;80.60;;;;;;6164565;23;19947;-77
2022/02/10 22:44:23;;;;;;;;;;;2.80;81.50;;;;;;6159994;23;20253;-77
2022/02/10 22:46:50;;;;;;;;;;;2.70;81.70;;;;;;6192493;23;20657;-75
2022/02/10 22:49:17;;;;;;;;;;;2.70;81.50;;;;;;6190729;23;19963;-76
2022/02/10 22:51:44;;;;;;;;;;;2.60;81.80;;;;;;6164860;23;19966;-76
2022/02/10 22:54:14;;;;;;;;;;;2.50;81.70;;;;;;6163169;23;19920;-75
2022/02/10 22:56:43;;;;;;;;;;;2.50;82.40;;;;;;6186626;23;19920;-77
2022/02/10 22:59:10;;;;;;;;;;;2.40;81.70;;;;;;6163107;23;19916;-77
2022/02/10 23:01:37;;;;;;;;;;;2.40;81.70;;;;;;6191979;23;19924;-76
2022/02/10 23:04:05;;;;;;;;;;;2.30;82.30;;;;;;6164184;23;19920;-77
2022/02/10 23:06:32;;;;;;;;;;;2.30;82.30;;;;;;6192002;23;20300;-77
2022/02/10 23:09:23;;;;;;;;;;;2.30;81.80;;;;;;6190723;23;19916;-75
2022/02/10 23:11:49;;;;;;;;;;;2.20;81.60;;;;;;6190047;23;19916;-74
2022/02/10 23:14:16;;;;;;;;;;;2.20;82.50;;;;;;6188456;23;20253;-75
2022/02/10 23:16:45;;;;;;;;;;;2.10;82.60;;;;;;6192811;23;19916;-76
2022/02/10 23:19:13;;;;;;;;;;;2.10;82.70;;;;;;6191543;23;19943;-76
2022/02/10 23:21:40;;;;;;;;;;;2.10;84.30;;;;;;6182103;23;20292;-76
2022/02/10 23:24:06;;;;;;;;;;;2.10;84.10;;;;;;6187782;23;19917;-77
2022/02/10 23:26:33;;;;;;;;;;;2.10;84.30;;;;;;6188891;23;19916;-76
2022/02/10 23:29:01;;;;;;;;;;;2.00;84.60;;;;;;6190377;23;20388;-77
2022/02/10 23:31:28;;;;;;;;;;;2.00;85.60;;;;;;6186674;23;19924;-75
2022/02/10 23:33:58;;;;;;;;;;;2.00;86.50;;;;;;6161614;23;19963;-77
2022/02/10 23:39:14;;;;;;;;;;;2.10;88.20;;;;;;6193204;23;19923;-75
2022/02/10 23:44:14;;;;;;;;;;;2.10;87.20;;;;;;6189916;23;19974;-77
2022/02/10 23:46:42;;;;;;;;;;;2.10;87.00;;;;;;6186160;23;19920;-76
2022/02/10 23:49:13;;;;;;;;;;;2.20;87.90;;;;;;6190849;23;19983;-76
2022/02/10 23:51:48;;;;;;;;;;;2.20;87.80;;;;;;6184851;23;19967;-77
2022/02/10 23:54:15;;;;;;;;;;;2.20;88.70;;;;;;6182168;23;20490;-76
2022/02/10 23:56:48;;;;;;;;;;;2.20;87.90;;;;;;6187721;23;20293;-77
2022/02/10 23:59:30;;;;;;;;;;;2.10;85.60;;;;;;6187947;23;20245;-76
